If you wish to contribute or participate in the discussions about articles you are invited to join SKYbrary as a registered user

 Actions

Laupheim Air Base

From SKYbrary Wiki

ETHL
Airport
ICAO: ETHL
Summary
Name Laupheim Air Base
Region Europe
Territory Germany DE.gif
Location Laupheim, Baden-Württemberg
Serving
Coordinates 48° 13' 12.33" N, 9° 54' 34.84" E
Runways
Designator Length Width Surface ROPS
3/21 600 m1,968.504 ft
50 m164.042 ft
GRS /
9/27 1646 m5,400.262 ft
30 m98.425 ft
ASP /


METAR
Observation ETHL 220756Z 04002KT 0500 R27/0900N FG BKN330 09/09 Q1024 RED YLO TEMPO RED
Station Laupheim
Date/Time 22 October 2019 07:56:00
Wind direction 40°
Wind speed 02 kts
Lowest cloud amount broken clouds
Temperature 27°C
Dew point 0°C
Humidity 17%
QNH 1024 hPa
Weather condition n/a

Laupheim Air Base

ICAO: ETHL IATA: ---

Description

Laupheim Air Base is located close to the city of Laupheim, Baden-Württemberg, Germany.

Maps

Terrain

Loading map...

Airport Layout

Loading map...



Accidents & Serious Incidents at or in vicinity of ETHL

None on SKYbrary